sensor_id;sensor_type;location;lat;lon;timestamp;pressure;altitude;pressure_sealevel;temperature
12061;BMP180;6091;51.432;6.880;2023-02-03T00:01:56;101667.00;;;22.70
12061;BMP180;6091;51.432;6.880;2023-02-03T00:04:23;101668.00;;;22.70
12061;BMP180;6091;51.432;6.880;2023-02-03T00:06:50;101648.00;;;22.70
12061;BMP180;6091;51.432;6.880;2023-02-03T00:09:18;101659.00;;;22.70
12061;BMP180;6091;51.432;6.880;2023-02-03T00:11:46;101661.00;;;22.70
12061;BMP180;6091;51.432;6.880;2023-02-03T00:14:13;101656.00;;;22.70
12061;BMP180;6091;51.432;6.880;2023-02-03T00:16:40;101654.00;;;22.70
12061;BMP180;6091;51.432;6.880;2023-02-03T00:19:07;101652.00;;;22.60
12061;BMP180;6091;51.432;6.880;2023-02-03T00:21:34;101645.00;;;22.60
12061;BMP180;6091;51.432;6.880;2023-02-03T00:24:01;101652.00;;;22.60
12061;BMP180;6091;51.432;6.880;2023-02-03T00:26:28;101641.00;;;22.60
12061;BMP180;6091;51.432;6.880;2023-02-03T00:28:58;101645.00;;;22.60
12061;BMP180;6091;51.432;6.880;2023-02-03T00:31:25;101648.00;;;22.60
12061;BMP180;6091;51.432;6.880;2023-02-03T00:33:55;101648.00;;;22.60
12061;BMP180;6091;51.432;6.880;2023-02-03T00:36:24;101636.00;;;22.60
12061;BMP180;6091;51.432;6.880;2023-02-03T00:38:52;101640.00;;;22.60
12061;BMP180;6091;51.432;6.880;2023-02-03T00:41:20;101641.00;;;22.60
12061;BMP180;6091;51.432;6.880;2023-02-03T00:43:48;101658.00;;;22.60
12061;BMP180;6091;51.432;6.880;2023-02-03T00:46:15;101654.00;;;22.60
12061;BMP180;6091;51.432;6.880;2023-02-03T00:48:42;101645.00;;;22.60
12061;BMP180;6091;51.432;6.880;2023-02-03T00:51:10;101637.00;;;22.60
12061;BMP180;6091;51.432;6.880;2023-02-03T00:53:37;101651.00;;;22.60
12061;BMP180;6091;51.432;6.880;2023-02-03T00:56:04;101652.00;;;22.50
12061;BMP180;6091;51.432;6.880;2023-02-03T00:58:41;101658.00;;;22.50
12061;BMP180;6091;51.432;6.880;2023-02-03T01:01:09;101669.00;;;22.50
12061;BMP180;6091;51.432;6.880;2023-02-03T01:03:37;101676.00;;;22.50
12061;BMP180;6091;51.432;6.880;2023-02-03T01:06:20;101676.00;;;22.50
12061;BMP180;6091;51.432;6.880;2023-02-03T01:08:47;101684.00;;;22.50
12061;BMP180;6091;51.432;6.880;2023-02-03T01:11:22;101682.00;;;22.50
12061;BMP180;6091;51.432;6.880;2023-02-03T01:13:52;101698.00;;;22.50
12061;BMP180;6091;51.432;6.880;2023-02-03T01:16:22;101708.00;;;22.50
12061;BMP180;6091;51.432;6.880;2023-02-03T01:18:49;101706.00;;;22.50
12061;BMP180;6091;51.432;6.880;2023-02-03T01:21:21;101713.00;;;22.50
12061;BMP180;6091;51.432;6.880;2023-02-03T01:23:50;101708.00;;;22.50
12061;BMP180;6091;51.432;6.880;2023-02-03T01:26:21;101705.00;;;22.50
12061;BMP180;6091;51.432;6.880;2023-02-03T01:28:59;101699.00;;;22.50
12061;BMP180;6091;51.432;6.880;2023-02-03T01:31:37;101699.00;;;22.40
12061;BMP180;6091;51.432;6.880;2023-02-03T01:34:12;101700.00;;;22.40
12061;BMP180;6091;51.432;6.880;2023-02-03T01:36:39;101699.00;;;22.40
12061;BMP180;6091;51.432;6.880;2023-02-03T01:39:07;101697.00;;;22.40
12061;BMP180;6091;51.432;6.880;2023-02-03T01:41:37;101703.00;;;22.40
12061;BMP180;6091;51.432;6.880;2023-02-03T01:50:38;101690.00;;;22.30
12061;BMP180;6091;51.432;6.880;2023-02-03T01:53:09;101684.00;;;22.40
12061;BMP180;6091;51.432;6.880;2023-02-03T01:55:43;101686.00;;;22.40
12061;BMP180;6091;51.432;6.880;2023-02-03T01:58:24;101697.00;;;22.40
12061;BMP180;6091;51.432;6.880;2023-02-03T02:00:54;101703.00;;;22.40
12061;BMP180;6091;51.432;6.880;2023-02-03T02:03:31;101701.00;;;22.40
12061;BMP180;6091;51.432;6.880;2023-02-03T02:06:07;101701.00;;;22.40
12061;BMP180;6091;51.432;6.880;2023-02-03T02:08:37;101690.00;;;22.40
12061;BMP180;6091;51.432;6.880;2023-02-03T02:11:06;101681.00;;;22.40
12061;BMP180;6091;51.432;6.880;2023-02-03T02:13:35;101674.00;;;22.40
12061;BMP180;6091;51.432;6.880;2023-02-03T02:22:17;101667.00;;;22.30
12061;BMP180;6091;51.432;6.880;2023-02-03T02:30:52;101636.00;;;22.30
12061;BMP180;6091;51.432;6.880;2023-02-03T02:33:39;101641.00;;;22.30
12061;BMP180;6091;51.432;6.880;2023-02-03T02:36:21;101649.00;;;22.30
12061;BMP180;6091;51.432;6.880;2023-02-03T02:39:36;101632.00;;;22.20
12061;BMP180;6091;51.432;6.880;2023-02-03T02:42:14;101639.00;;;22.20
12061;BMP180;6091;51.432;6.880;2023-02-03T02:44:51;101633.00;;;22.30
12061;BMP180;6091;51.432;6.880;2023-02-03T02:47:21;101646.00;;;22.30
12061;BMP180;6091;51.432;6.880;2023-02-03T02:50:04;101653.00;;;22.30
12061;BMP180;6091;51.432;6.880;2023-02-03T02:52:38;101634.00;;;22.20
12061;BMP180;6091;51.432;6.880;2023-02-03T02:55:19;101619.00;;;22.20
12061;BMP180;6091;51.432;6.880;2023-02-03T02:57:55;101614.00;;;22.20
12061;BMP180;6091;51.432;6.880;2023-02-03T03:00:23;101595.00;;;22.20
12061;BMP180;6091;51.432;6.880;2023-02-03T03:02:50;101615.00;;;22.20
12061;BMP180;6091;51.432;6.880;2023-02-03T03:05:18;101619.00;;;22.20
12061;BMP180;6091;51.432;6.880;2023-02-03T03:07:55;101613.00;;;22.20
12061;BMP180;6091;51.432;6.880;2023-02-03T03:10:26;101623.00;;;22.20
12061;BMP180;6091;51.432;6.880;2023-02-03T03:13:05;101656.00;;;22.20
12061;BMP180;6091;51.432;6.880;2023-02-03T03:15:35;101660.00;;;22.20
12061;BMP180;6091;51.432;6.880;2023-02-03T03:18:11;101661.00;;;22.20
12061;BMP180;6091;51.432;6.880;2023-02-03T03:20:41;101654.00;;;22.20
12061;BMP180;6091;51.432;6.880;2023-02-03T03:23:37;101641.00;;;22.20
12061;BMP180;6091;51.432;6.880;2023-02-03T03:26:16;101639.00;;;22.20
12061;BMP180;6091;51.432;6.880;2023-02-03T03:31:39;101624.00;;;22.20
12061;BMP180;6091;51.432;6.880;2023-02-03T03:34:10;101623.00;;;22.20
12061;BMP180;6091;51.432;6.880;2023-02-03T03:36:59;101633.00;;;22.10
12061;BMP180;6091;51.432;6.880;2023-02-03T03:39:34;101637.00;;;22.10
12061;BMP180;6091;51.432;6.880;2023-02-03T03:42:19;101641.00;;;22.10
12061;BMP180;6091;51.432;6.880;2023-02-03T03:44:59;101633.00;;;22.10
12061;BMP180;6091;51.432;6.880;2023-02-03T03:47:41;101644.00;;;22.10
12061;BMP180;6091;51.432;6.880;2023-02-03T03:50:16;101638.00;;;22.10
12061;BMP180;6091;51.432;6.880;2023-02-03T03:52:47;101625.00;;;22.10
12061;BMP180;6091;51.432;6.880;2023-02-03T03:55:18;101635.00;;;22.10
12061;BMP180;6091;51.432;6.880;2023-02-03T03:58:07;101638.00;;;22.10
12061;BMP180;6091;51.432;6.880;2023-02-03T04:00:38;101623.00;;;22.10
12061;BMP180;6091;51.432;6.880;2023-02-03T04:03:24;101640.00;;;22.10
12061;BMP180;6091;51.432;6.880;2023-02-03T04:05:53;101636.00;;;22.10
12061;BMP180;6091;51.432;6.880;2023-02-03T04:08:20;101634.00;;;22.10
12061;BMP180;6091;51.432;6.880;2023-02-03T04:10:47;101646.00;;;22.10
12061;BMP180;6091;51.432;6.880;2023-02-03T04:13:14;101642.00;;;22.10
12061;BMP180;6091;51.432;6.880;2023-02-03T04:15:41;101640.00;;;22.10
12061;BMP180;6091;51.432;6.880;2023-02-03T04:18:12;101636.00;;;22.10
12061;BMP180;6091;51.432;6.880;2023-02-03T04:20:39;101626.00;;;22.10
12061;BMP180;6091;51.432;6.880;2023-02-03T04:23:07;101612.00;;;22.10
12061;BMP180;6091;51.432;6.880;2023-02-03T04:25:34;101616.00;;;22.10
12061;BMP180;6091;51.432;6.880;2023-02-03T04:28:01;101631.00;;;22.10
12061;BMP180;6091;51.432;6.880;2023-02-03T04:30:29;101627.00;;;22.10
12061;BMP180;6091;51.432;6.880;2023-02-03T04:32:56;101628.00;;;22.10
12061;BMP180;6091;51.432;6.880;2023-02-03T04:35:23;101621.00;;;22.10
12061;BMP180;6091;51.432;6.880;2023-02-03T04:37:50;101630.00;;;22.10
12061;BMP180;6091;51.432;6.880;2023-02-03T04:40:17;101631.00;;;22.10
12061;BMP180;6091;51.432;6.880;2023-02-03T04:42:44;101628.00;;;22.00
12061;BMP180;6091;51.432;6.880;2023-02-03T04:45:11;101619.00;;;22.00
12061;BMP180;6091;51.432;6.880;2023-02-03T04:47:38;101612.00;;;22.00
12061;BMP180;6091;51.432;6.880;2023-02-03T04:50:06;101618.00;;;22.00
12061;BMP180;6091;51.432;6.880;2023-02-03T04:52:33;101612.00;;;22.00
12061;BMP180;6091;51.432;6.880;2023-02-03T04:55:00;101599.00;;;22.00
12061;BMP180;6091;51.432;6.880;2023-02-03T04:57:29;101607.00;;;22.00
12061;BMP180;6091;51.432;6.880;2023-02-03T04:59:56;101602.00;;;22.00
12061;BMP180;6091;51.432;6.880;2023-02-03T05:02:23;101596.00;;;22.00
12061;BMP180;6091;51.432;6.880;2023-02-03T05:04:50;101591.00;;;22.00
12061;BMP180;6091;51.432;6.880;2023-02-03T05:07:17;101572.00;;;22.00
12061;BMP180;6091;51.432;6.880;2023-02-03T05:09:44;101584.00;;;22.00
12061;BMP180;6091;51.432;6.880;2023-02-03T05:12:11;101591.00;;;22.00
12061;BMP180;6091;51.432;6.880;2023-02-03T05:14:38;101596.00;;;22.00
12061;BMP180;6091;51.432;6.880;2023-02-03T05:17:05;101588.00;;;22.00
12061;BMP180;6091;51.432;6.880;2023-02-03T05:19:32;101587.00;;;22.00
12061;BMP180;6091;51.432;6.880;2023-02-03T05:21:58;101579.00;;;22.00
12061;BMP180;6091;51.432;6.880;2023-02-03T05:24:25;101583.00;;;22.00
12061;BMP180;6091;51.432;6.880;2023-02-03T05:26:52;101586.00;;;22.00
12061;BMP180;6091;51.432;6.880;2023-02-03T05:29:20;101586.00;;;22.00
12061;BMP180;6091;51.432;6.880;2023-02-03T05:31:47;101597.00;;;22.00
12061;BMP180;6091;51.432;6.880;2023-02-03T05:34:14;101599.00;;;22.00
12061;BMP180;6091;51.432;6.880;2023-02-03T05:36:41;101607.00;;;22.00
12061;BMP180;6091;51.432;6.880;2023-02-03T05:39:07;101586.00;;;21.90
12061;BMP180;6091;51.432;6.880;2023-02-03T05:41:34;101595.00;;;22.00
12061;BMP180;6091;51.432;6.880;2023-02-03T05:44:26;101603.00;;;21.90
12061;BMP180;6091;51.432;6.880;2023-02-03T05:46:58;101598.00;;;21.90
12061;BMP180;6091;51.432;6.880;2023-02-03T05:49:25;101591.00;;;21.90
12061;BMP180;6091;51.432;6.880;2023-02-03T05:51:54;101602.00;;;21.90
12061;BMP180;6091;51.432;6.880;2023-02-03T05:54:21;101594.00;;;21.90
12061;BMP180;6091;51.432;6.880;2023-02-03T05:56:48;101593.00;;;21.90
12061;BMP180;6091;51.432;6.880;2023-02-03T05:59:15;101589.00;;;21.90
12061;BMP180;6091;51.432;6.880;2023-02-03T06:01:42;101612.00;;;21.90
12061;BMP180;6091;51.432;6.880;2023-02-03T06:04:09;101596.00;;;21.90
12061;BMP180;6091;51.432;6.880;2023-02-03T06:06:36;101590.00;;;21.90
12061;BMP180;6091;51.432;6.880;2023-02-03T06:09:07;101592.00;;;21.90
12061;BMP180;6091;51.432;6.880;2023-02-03T06:11:35;101596.00;;;21.90
12061;BMP180;6091;51.432;6.880;2023-02-03T06:14:03;101602.00;;;21.90
12061;BMP180;6091;51.432;6.880;2023-02-03T06:16:30;101601.00;;;21.90
12061;BMP180;6091;51.432;6.880;2023-02-03T06:19:00;101599.00;;;21.90
12061;BMP180;6091;51.432;6.880;2023-02-03T06:21:28;101596.00;;;21.90
12061;BMP180;6091;51.432;6.880;2023-02-03T06:23:55;101604.00;;;21.90
12061;BMP180;6091;51.432;6.880;2023-02-03T06:26:23;101592.00;;;21.90
12061;BMP180;6091;51.432;6.880;2023-02-03T06:28:51;101594.00;;;21.90
12061;BMP180;6091;51.432;6.880;2023-02-03T06:31:18;101590.00;;;21.90
12061;BMP180;6091;51.432;6.880;2023-02-03T06:33:45;101604.00;;;21.90
12061;BMP180;6091;51.432;6.880;2023-02-03T06:36:12;101607.00;;;21.90
12061;BMP180;6091;51.432;6.880;2023-02-03T06:38:39;101600.00;;;22.00
12061;BMP180;6091;51.432;6.880;2023-02-03T06:41:06;101602.00;;;22.00
12061;BMP180;6091;51.432;6.880;2023-02-03T06:43:33;101609.00;;;22.10
12061;BMP180;6091;51.432;6.880;2023-02-03T06:46:01;101613.00;;;22.20
12061;BMP180;6091;51.432;6.880;2023-02-03T06:48:29;101616.00;;;22.30
12061;BMP180;6091;51.432;6.880;2023-02-03T06:50:56;101625.00;;;22.40
12061;BMP180;6091;51.432;6.880;2023-02-03T06:53:23;101621.00;;;22.60
12061;BMP180;6091;51.432;6.880;2023-02-03T06:55:50;101607.00;;;22.70
12061;BMP180;6091;51.432;6.880;2023-02-03T06:58:19;101614.00;;;22.90
12061;BMP180;6091;51.432;6.880;2023-02-03T07:00:46;101617.00;;;23.00
12061;BMP180;6091;51.432;6.880;2023-02-03T07:03:13;101612.00;;;23.10
12061;BMP180;6091;51.432;6.880;2023-02-03T07:05:40;101616.00;;;23.30
12061;BMP180;6091;51.432;6.880;2023-02-03T07:08:07;101629.00;;;23.40
12061;BMP180;6091;51.432;6.880;2023-02-03T07:10:34;101632.00;;;23.50
12061;BMP180;6091;51.432;6.880;2023-02-03T07:13:05;101627.00;;;23.60
12061;BMP180;6091;51.432;6.880;2023-02-03T07:15:33;101631.00;;;23.80
12061;BMP180;6091;51.432;6.880;2023-02-03T07:18:01;101626.00;;;23.90
12061;BMP180;6091;51.432;6.880;2023-02-03T07:20:28;101626.00;;;24.00
12061;BMP180;6091;51.432;6.880;2023-02-03T07:22:57;101624.00;;;24.10
12061;BMP180;6091;51.432;6.880;2023-02-03T07:25:25;101624.00;;;24.20
12061;BMP180;6091;51.432;6.880;2023-02-03T07:27:53;101624.00;;;24.30
12061;BMP180;6091;51.432;6.880;2023-02-03T07:30:20;101631.00;;;24.30
12061;BMP180;6091;51.432;6.880;2023-02-03T07:32:52;101620.00;;;24.40
12061;BMP180;6091;51.432;6.880;2023-02-03T07:35:20;101618.00;;;24.50
12061;BMP180;6091;51.432;6.880;2023-02-03T07:37:47;101621.00;;;24.60
12061;BMP180;6091;51.432;6.880;2023-02-03T07:40:14;101619.00;;;24.70
12061;BMP180;6091;51.432;6.880;2023-02-03T07:42:47;101629.00;;;24.80
12061;BMP180;6091;51.432;6.880;2023-02-03T07:45:16;101616.00;;;24.80
12061;BMP180;6091;51.432;6.880;2023-02-03T07:47:44;101641.00;;;24.90
12061;BMP180;6091;51.432;6.880;2023-02-03T07:50:11;101644.00;;;25.00
12061;BMP180;6091;51.432;6.880;2023-02-03T07:52:38;101648.00;;;25.10
12061;BMP180;6091;51.432;6.880;2023-02-03T07:55:06;101649.00;;;25.20
12061;BMP180;6091;51.432;6.880;2023-02-03T07:57:34;101654.00;;;25.20
12061;BMP180;6091;51.432;6.880;2023-02-03T08:00:02;101654.00;;;25.30
12061;BMP180;6091;51.432;6.880;2023-02-03T08:02:29;101643.00;;;25.40
12061;BMP180;6091;51.432;6.880;2023-02-03T08:04:56;101653.00;;;25.40
12061;BMP180;6091;51.432;6.880;2023-02-03T08:07:25;101666.00;;;25.50
12061;BMP180;6091;51.432;6.880;2023-02-03T08:09:52;101667.00;;;25.60
12061;BMP180;6091;51.432;6.880;2023-02-03T08:12:19;101653.00;;;25.60
12061;BMP180;6091;51.432;6.880;2023-02-03T08:14:45;101676.00;;;25.70
12061;BMP180;6091;51.432;6.880;2023-02-03T08:17:12;101656.00;;;25.70
12061;BMP180;6091;51.432;6.880;2023-02-03T08:19:39;101665.00;;;25.80
12061;BMP180;6091;51.432;6.880;2023-02-03T08:22:07;101663.00;;;25.80
12061;BMP180;6091;51.432;6.880;2023-02-03T08:24:34;101666.00;;;25.80
12061;BMP180;6091;51.432;6.880;2023-02-03T08:27:00;101678.00;;;25.90
12061;BMP180;6091;51.432;6.880;2023-02-03T08:29:30;101671.00;;;25.90
12061;BMP180;6091;51.432;6.880;2023-02-03T08:31:57;101679.00;;;26.00
12061;BMP180;6091;51.432;6.880;2023-02-03T08:34:24;101680.00;;;26.00
12061;BMP180;6091;51.432;6.880;2023-02-03T08:36:51;101674.00;;;26.00
12061;BMP180;6091;51.432;6.880;2023-02-03T08:39:20;101668.00;;;26.00
12061;BMP180;6091;51.432;6.880;2023-02-03T08:41:47;101679.00;;;26.10
12061;BMP180;6091;51.432;6.880;2023-02-03T08:44:14;101672.00;;;26.10
12061;BMP180;6091;51.432;6.880;2023-02-03T08:46:41;101674.00;;;26.10
12061;BMP180;6091;51.432;6.880;2023-02-03T08:49:10;101681.00;;;26.10
12061;BMP180;6091;51.432;6.880;2023-02-03T08:51:37;101679.00;;;26.40
12061;BMP180;6091;51.432;6.880;2023-02-03T08:54:04;101684.00;;;26.30
12061;BMP180;6091;51.432;6.880;2023-02-03T08:56:31;101688.00;;;26.20
12061;BMP180;6091;51.432;6.880;2023-02-03T08:58:59;101696.00;;;26.20
12061;BMP180;6091;51.432;6.880;2023-02-03T09:01:27;101699.00;;;26.20
12061;BMP180;6091;51.432;6.880;2023-02-03T09:03:55;101679.00;;;26.20
12061;BMP180;6091;51.432;6.880;2023-02-03T09:06:22;101679.00;;;26.20
12061;BMP180;6091;51.432;6.880;2023-02-03T09:08:51;101683.00;;;26.20
12061;BMP180;6091;51.432;6.880;2023-02-03T09:11:18;101679.00;;;26.10
12061;BMP180;6091;51.432;6.880;2023-02-03T09:13:45;101683.00;;;26.10
12061;BMP180;6091;51.432;6.880;2023-02-03T09:16:17;101685.00;;;26.20
12061;BMP180;6091;51.432;6.880;2023-02-03T09:18:45;101692.00;;;26.20
12061;BMP180;6091;51.432;6.880;2023-02-03T09:21:14;101692.00;;;26.20
12061;BMP180;6091;51.432;6.880;2023-02-03T09:24:03;101709.00;;;26.20
12061;BMP180;6091;51.432;6.880;2023-02-03T09:26:30;101699.00;;;26.10
12061;BMP180;6091;51.432;6.880;2023-02-03T09:28:57;101694.00;;;26.00
12061;BMP180;6091;51.432;6.880;2023-02-03T09:31:24;101702.00;;;25.90
12061;BMP180;6091;51.432;6.880;2023-02-03T09:33:51;101698.00;;;25.80
12061;BMP180;6091;51.432;6.880;2023-02-03T09:36:18;101704.00;;;25.80
12061;BMP180;6091;51.432;6.880;2023-02-03T09:38:45;101706.00;;;25.80
12061;BMP180;6091;51.432;6.880;2023-02-03T09:47:02;101704.00;;;25.80
12061;BMP180;6091;51.432;6.880;2023-02-03T09:49:40;101692.00;;;25.80
12061;BMP180;6091;51.432;6.880;2023-02-03T09:52:20;101703.00;;;25.90
12061;BMP180;6091;51.432;6.880;2023-02-03T09:55:29;101707.00;;;25.90
12061;BMP180;6091;51.432;6.880;2023-02-03T09:58:14;101705.00;;;26.00
12061;BMP180;6091;51.432;6.880;2023-02-03T10:00:50;101690.00;;;26.00
12061;BMP180;6091;51.432;6.880;2023-02-03T10:06:18;101694.00;;;26.10
12061;BMP180;6091;51.432;6.880;2023-02-03T10:12:24;101695.00;;;26.20
12061;BMP180;6091;51.432;6.880;2023-02-03T10:15:22;101701.00;;;26.20
12061;BMP180;6091;51.432;6.880;2023-02-03T10:18:04;101689.00;;;26.30
12061;BMP180;6091;51.432;6.880;2023-02-03T10:20:48;101697.00;;;26.30
12061;BMP180;6091;51.432;6.880;2023-02-03T10:23:29;101682.00;;;26.40
12061;BMP180;6091;51.432;6.880;2023-02-03T10:26:00;101694.00;;;26.40
12061;BMP180;6091;51.432;6.880;2023-02-03T10:28:34;101701.00;;;26.40
12061;BMP180;6091;51.432;6.880;2023-02-03T10:31:14;101714.00;;;26.40
12061;BMP180;6091;51.432;6.880;2023-02-03T10:33:42;101709.00;;;26.40
12061;BMP180;6091;51.432;6.880;2023-02-03T10:36:36;101711.00;;;26.40
12061;BMP180;6091;51.432;6.880;2023-02-03T10:41:56;101715.00;;;26.40
12061;BMP180;6091;51.432;6.880;2023-02-03T10:47:44;101711.00;;;26.40
12061;BMP180;6091;51.432;6.880;2023-02-03T10:50:19;101710.00;;;26.40
12061;BMP180;6091;51.432;6.880;2023-02-03T10:52:47;101697.00;;;26.40
12061;BMP180;6091;51.432;6.880;2023-02-03T10:57:51;101680.00;;;26.40
12061;BMP180;6091;51.432;6.880;2023-02-03T11:00:29;101688.00;;;26.30
12061;BMP180;6091;51.432;6.880;2023-02-03T11:03:06;101700.00;;;26.30
12061;BMP180;6091;51.432;6.880;2023-02-03T11:05:34;101707.00;;;26.30
12061;BMP180;6091;51.432;6.880;2023-02-03T11:08:01;101696.00;;;26.30
12061;BMP180;6091;51.432;6.880;2023-02-03T11:10:36;101687.00;;;26.30
12061;BMP180;6091;51.432;6.880;2023-02-03T11:13:24;101710.00;;;26.30
12061;BMP180;6091;51.432;6.880;2023-02-03T11:16:08;101706.00;;;26.30
12061;BMP180;6091;51.432;6.880;2023-02-03T11:18:59;101721.00;;;26.20
12061;BMP180;6091;51.432;6.880;2023-02-03T11:29:28;101720.00;;;26.30
12061;BMP180;6091;51.432;6.880;2023-02-03T11:32:01;101727.00;;;26.30
12061;BMP180;6091;51.432;6.880;2023-02-03T11:34:36;101724.00;;;26.30
12061;BMP180;6091;51.432;6.880;2023-02-03T11:37:27;101733.00;;;26.30
12061;BMP180;6091;51.432;6.880;2023-02-03T11:42:41;101737.00;;;26.40
12061;BMP180;6091;51.432;6.880;2023-02-03T11:45:38;101730.00;;;26.40
12061;BMP180;6091;51.432;6.880;2023-02-03T11:51:23;101726.00;;;26.50
12061;BMP180;6091;51.432;6.880;2023-02-03T12:06:14;101731.00;;;26.50
12061;BMP180;6091;51.432;6.880;2023-02-03T12:12:28;101733.00;;;26.40
12061;BMP180;6091;51.432;6.880;2023-02-03T12:24:13;101740.00;;;26.40
12061;BMP180;6091;51.432;6.880;2023-02-03T12:29:26;101746.00;;;26.40
12061;BMP180;6091;51.432;6.880;2023-02-03T12:32:35;101746.00;;;26.40
12061;BMP180;6091;51.432;6.880;2023-02-03T12:35:23;101747.00;;;26.30
12061;BMP180;6091;51.432;6.880;2023-02-03T12:38:03;101747.00;;;26.30
12061;BMP180;6091;51.432;6.880;2023-02-03T12:40:46;101734.00;;;26.30
12061;BMP180;6091;51.432;6.880;2023-02-03T12:45:59;101730.00;;;26.30
12061;BMP180;6091;51.432;6.880;2023-02-03T12:48:53;101734.00;;;26.30
12061;BMP180;6091;51.432;6.880;2023-02-03T12:51:44;101747.00;;;26.30
12061;BMP180;6091;51.432;6.880;2023-02-03T12:57:24;101746.00;;;26.30
12061;BMP180;6091;51.432;6.880;2023-02-03T13:00:36;101743.00;;;26.20
12061;BMP180;6091;51.432;6.880;2023-02-03T13:06:42;101731.00;;;26.20
12061;BMP180;6091;51.432;6.880;2023-02-03T13:09:37;101734.00;;;26.30
12061;BMP180;6091;51.432;6.880;2023-02-03T13:12:34;101748.00;;;26.40
12061;BMP180;6091;51.432;6.880;2023-02-03T13:20:34;101734.00;;;26.30
12061;BMP180;6091;51.432;6.880;2023-02-03T13:23:11;101729.00;;;26.30
12061;BMP180;6091;51.432;6.880;2023-02-03T13:40:31;101710.00;;;26.30
12061;BMP180;6091;51.432;6.880;2023-02-03T13:43:09;101711.00;;;26.40
12061;BMP180;6091;51.432;6.880;2023-02-03T13:45:49;101715.00;;;26.40
12061;BMP180;6091;51.432;6.880;2023-02-03T13:48:21;101718.00;;;26.40
12061;BMP180;6091;51.432;6.880;2023-02-03T13:51:07;101727.00;;;26.40
12061;BMP180;6091;51.432;6.880;2023-02-03T13:53:40;101746.00;;;26.40
12061;BMP180;6091;51.432;6.880;2023-02-03T13:56:22;101732.00;;;26.40
12061;BMP180;6091;51.432;6.880;2023-02-03T14:01:42;101738.00;;;26.40
12061;BMP180;6091;51.432;6.880;2023-02-03T14:11:51;101724.00;;;26.50
12061;BMP180;6091;51.432;6.880;2023-02-03T14:17:53;101738.00;;;26.50
12061;BMP180;6091;51.432;6.880;2023-02-03T14:23:19;101787.00;;;26.50
12061;BMP180;6091;51.432;6.880;2023-02-03T14:25:53;101778.00;;;26.50
12061;BMP180;6091;51.432;6.880;2023-02-03T14:28:28;101791.00;;;26.50
12061;BMP180;6091;51.432;6.880;2023-02-03T14:31:07;101801.00;;;26.50
12061;BMP180;6091;51.432;6.880;2023-02-03T14:34:09;101808.00;;;26.50
12061;BMP180;6091;51.432;6.880;2023-02-03T14:36:48;101812.00;;;26.50
12061;BMP180;6091;51.432;6.880;2023-02-03T14:45:07;101815.00;;;26.50
12061;BMP180;6091;51.432;6.880;2023-02-03T14:51:08;101831.00;;;26.50
12061;BMP180;6091;51.432;6.880;2023-02-03T14:54:09;101830.00;;;26.40
12061;BMP180;6091;51.432;6.880;2023-02-03T15:05:48;101852.00;;;26.30
12061;BMP180;6091;51.432;6.880;2023-02-03T15:08:45;101858.00;;;26.20
12061;BMP180;6091;51.432;6.880;2023-02-03T15:11:30;101858.00;;;26.20
12061;BMP180;6091;51.432;6.880;2023-02-03T15:14:33;101857.00;;;26.20
12061;BMP180;6091;51.432;6.880;2023-02-03T15:17:21;101872.00;;;26.20
12061;BMP180;6091;51.432;6.880;2023-02-03T15:19:50;101864.00;;;26.20
12061;BMP180;6091;51.432;6.880;2023-02-03T15:22:27;101865.00;;;26.30
12061;BMP180;6091;51.432;6.880;2023-02-03T15:25:00;101870.00;;;26.30
12061;BMP180;6091;51.432;6.880;2023-02-03T15:27:32;101878.00;;;26.30
12061;BMP180;6091;51.432;6.880;2023-02-03T15:30:20;101875.00;;;26.40
12061;BMP180;6091;51.432;6.880;2023-02-03T15:33:05;101865.00;;;26.50
12061;BMP180;6091;51.432;6.880;2023-02-03T15:35:35;101865.00;;;26.50
12061;BMP180;6091;51.432;6.880;2023-02-03T15:38:28;101872.00;;;26.60
12061;BMP180;6091;51.432;6.880;2023-02-03T15:40:57;101869.00;;;26.60
12061;BMP180;6091;51.432;6.880;2023-02-03T15:43:35;101887.00;;;26.70
12061;BMP180;6091;51.432;6.880;2023-02-03T15:46:10;101891.00;;;26.70
12061;BMP180;6091;51.432;6.880;2023-02-03T15:48:57;101886.00;;;26.80
12061;BMP180;6091;51.432;6.880;2023-02-03T15:51:37;101892.00;;;26.80
12061;BMP180;6091;51.432;6.880;2023-02-03T15:56:50;101889.00;;;26.80
12061;BMP180;6091;51.432;6.880;2023-02-03T15:59:37;101894.00;;;26.80
12061;BMP180;6091;51.432;6.880;2023-02-03T16:02:13;101890.00;;;26.80
12061;BMP180;6091;51.432;6.880;2023-02-03T16:04:42;101898.00;;;26.80
12061;BMP180;6091;51.432;6.880;2023-02-03T16:07:26;101904.00;;;26.80
12061;BMP180;6091;51.432;6.880;2023-02-03T16:09:57;101902.00;;;26.80
12061;BMP180;6091;51.432;6.880;2023-02-03T16:12:30;101904.00;;;26.80
12061;BMP180;6091;51.432;6.880;2023-02-03T16:14:59;101916.00;;;26.70
12061;BMP180;6091;51.432;6.880;2023-02-03T16:17:35;101924.00;;;26.70
12061;BMP180;6091;51.432;6.880;2023-02-03T16:22:45;101925.00;;;26.70
12061;BMP180;6091;51.432;6.880;2023-02-03T16:25:29;101928.00;;;26.60
12061;BMP180;6091;51.432;6.880;2023-02-03T16:30:56;101940.00;;;26.90
12061;BMP180;6091;51.432;6.880;2023-02-03T16:33:46;101944.00;;;26.70
12061;BMP180;6091;51.432;6.880;2023-02-03T16:36:31;101943.00;;;26.60
12061;BMP180;6091;51.432;6.880;2023-02-03T16:39:17;101951.00;;;26.50
12061;BMP180;6091;51.432;6.880;2023-02-03T16:42:15;101943.00;;;26.50
12061;BMP180;6091;51.432;6.880;2023-02-03T16:45:01;101949.00;;;26.50
12061;BMP180;6091;51.432;6.880;2023-02-03T16:47:48;101958.00;;;26.50
12061;BMP180;6091;51.432;6.880;2023-02-03T16:50:34;101962.00;;;26.50
12061;BMP180;6091;51.432;6.880;2023-02-03T16:53:26;101963.00;;;26.50
12061;BMP180;6091;51.432;6.880;2023-02-03T16:56:00;101973.00;;;26.50
12061;BMP180;6091;51.432;6.880;2023-02-03T16:58:27;101970.00;;;26.60
12061;BMP180;6091;51.432;6.880;2023-02-03T17:00:57;101971.00;;;26.60
12061;BMP180;6091;51.432;6.880;2023-02-03T17:03:26;101974.00;;;26.60
12061;BMP180;6091;51.432;6.880;2023-02-03T17:05:55;101977.00;;;26.70
12061;BMP180;6091;51.432;6.880;2023-02-03T17:08:24;101980.00;;;26.70
12061;BMP180;6091;51.432;6.880;2023-02-03T17:10:52;101993.00;;;26.70
12061;BMP180;6091;51.432;6.880;2023-02-03T17:13:21;101983.00;;;26.80
12061;BMP180;6091;51.432;6.880;2023-02-03T17:15:50;101993.00;;;26.80
12061;BMP180;6091;51.432;6.880;2023-02-03T17:18:21;101990.00;;;26.80
12061;BMP180;6091;51.432;6.880;2023-02-03T17:20:48;101986.00;;;26.80